• Join FlightAware (Why Join?)
  • Login
  • US Flag 
03:39AM EDT


 

Airport Tracker/Info


-or-


 

Live Flight TrackerFlight Track Log ✈ LOF3416 ✈ 23-Apr-2013 ✈ KIAD - KDAY

Flight Track Log - Related Links

Times and Time Zones

All times are in EDT time to prevent confusion due to time zone crossing. See the LOF3416 flight status page for this flight to view local times or setup timezone preferences in your user account.

Time Position Orientation Groundspeed Altitude Reporting Facility
EDT Latitude Longitude Course Direction KTS MPH feet Rate Location/Type
10:27PM 38.9333 -77.5500 270° West 203 234 2,500  Level Potomac TRACON
10:28PM 38.9333 -77.6333 270° West 247 284 4,900 1,560 Climbing Potomac TRACON
10:28PM 38.9078 -77.6831 237° Southwest 250 288 5,000 1,500 Climbing Washington Center
10:29PM 38.8894 -77.7733 255° West 250 288 7,300 2,400 Climbing Washington Center
10:30PM 38.8983 -77.8589 278° West 257 296 9,900 2,100 Climbing Washington Center
10:31PM 38.9283 -78.1466 288° West  Level FlightAware Approximate
10:31PM 38.9111 -77.9472 281° West 264 304 11,500  Level Washington Center
10:32PM 38.9500 -78.2612 270° West  Level FlightAware Approximate
10:32PM 38.9303 -78.0386 285° West 270 311 13,100  Level Washington Center
10:33PM 38.9489 -78.1461 283° West 291 335 15,100 1,680 Climbing Washington Center
10:34PM 38.9631 -78.2558 279° West 303 349 16,500 900 Climbing Washington Center
10:35PM 38.9667 -78.3736 272° West 318 366 17,000 360 Climbing Washington Center
10:36PM 38.9700 -78.5044 272° West 348 400 17,300 540 Climbing Washington Center
10:37PM 38.9750 -78.6356 273° West 366 421 18,100 900 Climbing Washington Center
10:38PM 38.9778 -78.7692 272° West 373 429 19,100 960 Climbing Washington Center
10:39PM 38.9825 -78.9056 273° West 378 435 20,100 960 Climbing Washington Center
10:40PM 38.9847 -79.0444 271° West 388 447 21,100 1,260 Climbing Washington Center
10:41PM 38.9892 -79.1836 272° West 388 447 22,700 1,440 Climbing Washington Center
10:42PM 38.9933 -79.3175 272° West 383 441 24,000 1,080 Climbing Washington Center
10:43PM 38.9953 -79.4536 271° West 383 441 24,900 1,500 Climbing Washington Center
10:44PM 38.9967 -79.6033 271° West 388 447 27,000 1,500 Climbing Washington Center
10:45PM 39.0011 -79.7158 273° West 375 432 28,000 480 Climbing Washington Center
10:46PM 39.0028 -79.8442 271° West 370 426 28,000  Level Washington Center
10:47PM 39.0042 -79.9833 271° West 370 426 28,000  Level Washington Center
10:48PM 39.0053 -80.1247 271° West 389 448 28,000  Level Washington Center
10:49PM 39.0053 -80.2064 270° West 402 463 28,000  Level Indianapolis Center
10:50PM 39.0089 -80.3522 272° West 409 471 28,000  Level Indianapolis Center
10:51PM 39.0253 -80.4961 278° West 410 472 28,000  Level Indianapolis Center
10:52PM 39.0450 -80.6386 280° West 407 468 28,000  Level Indianapolis Center
10:53PM 39.0642 -80.7756 280° West 395 455 28,000  Level Indianapolis Center
10:54PM 39.0836 -80.9167 280° West 401 461 28,000 -480 Level Indianapolis Center
10:55PM 39.1008 -81.0564 279° West 399 459 27,100 -1,380 Descending Indianapolis Center
10:56PM 39.1217 -81.1992 281° West 407 468 25,300 -1,560 Descending Indianapolis Center
10:57PM 39.1433 -81.3689 279° West 405 466 24,000 -660 Descending Indianapolis Center
10:58PM 39.1614 -81.5081 280° West 398 458 24,000 -180 Level Indianapolis Center
10:59PM 39.1800 -81.6483 280° West 400 460 23,700 -900 Descending Indianapolis Center
11:00PM 39.1975 -81.7903 279° West 403 464 22,200 -840 Descending Indianapolis Center
11:01PM 39.2147 -81.9283 279° West 394 453 22,000 -120 Descending Indianapolis Center
11:02PM 39.2308 -82.0647 279° West 387 445 22,000  Level Indianapolis Center
11:03PM 39.2492 -82.2014 280° West 389 448 22,000  Level Indianapolis Center
11:04PM 39.2656 -82.3381 279° West 387 445 22,000  Level Indianapolis Center
11:05PM 39.2828 -82.4800 279° West 383 441 22,000  Level Indianapolis Center
11:06PM 39.2989 -82.6203 278° West 390 449 22,000  Level Indianapolis Center
11:07PM 39.3161 -82.7586 279° West 387 445 22,000  Level Indianapolis Center
11:08PM 39.3350 -82.9219 279° West 390 449 22,000 -1,080 Level Indianapolis Center
11:09PM 39.3511 -83.0583 279° West 382 440 19,900 -2,340 Descending Indianapolis Center
11:10PM 39.3661 -83.1864 279° West 360 414 17,300 -2,400 Descending Indianapolis Center
11:11PM 39.3794 -83.3053 278° West 334 384 15,100 -2,160 Descending Indianapolis Center
11:12PM 39.3881 -83.3775 279° West 333 383 13,800 -2,220 Descending Indianapolis Center
11:12PM 39.3928 -83.4258 277° West 334 384 12,900 -1,920 Descending Indianapolis Center
11:13PM 39.4058 -83.5444 278° West 330 380 11,100 -1,440 Descending Indianapolis Center
11:14PM 39.4603 -83.6353 308° West 339 390 10,000 -540 Descending Indianapolis Center
11:15PM 39.5394 -83.7083 325° Northwest 344 396 10,000  Level Indianapolis Center
11:16PM 39.6158 -83.7878 321° Northwest 346 398 10,000 -60 Level Indianapolis Center
11:17PM 39.6889 -83.8606 323° Northwest 324 373 9,900 -480 Descending Indianapolis Center
11:18PM 39.7050 -83.8767 322° Northwest 283 326 9,400 -1,980 Descending Indianapolis Center
11:18PM 39.7503 -83.9217 323° Northwest 278 320 7,900 -1,980 Descending Indianapolis Center
11:19PM 39.7653 -83.9386 319° Northwest 263 303 7,400 -1,980 Descending Indianapolis Center
11:19PM 39.8111 -83.9822 324° Northwest 274 315 5,900 -1,860 Descending Indianapolis Center
11:20PM 39.8711 -84.0425 322° Northwest 271 312 4,100 -1,560 Descending Indianapolis Center
11:21PM 39.9261 -84.1033 320° Northwest 262 302 2,800 -1,260 Descending Indianapolis Center